CCA9426 ZUPL-ZULS
Flight info
| Callsign | CCA9426 |
|---|---|
| Flight time | 1h 28m |
| Altitude | 35100 |
| Route | P245 Z6 RKZ B345 IKUBI |
| Aircraft | A319/M-SABCDE1E2E3FGHIJ1J2J5J6M1M2RTUW/LB1U1V1 |
Departure
| Time | 2026-05-09 04:52 |
|---|---|
| Airport | Ali Pulan Airport (ZUPL) |
Arrival
| Time | 2026-05-09 06:21 |
|---|---|
| Airport | Lhasa Gonggar International Airport (ZULS) |
| Time | Latitude | Longitude | Altitude | Speed | Heading |
|---|---|---|---|---|---|
| 2026-05-09 04:22 | 30.39304 | 81.13973 | 13820 ft | 0 kts | 58° |
| 2026-05-09 04:40 | 30.39292 | 81.13951 | 13814 ft | 4 kts | 57° |
| 2026-05-09 04:40 | 30.39277 | 81.13925 | 13810 ft | 4 kts | 58° |
| 2026-05-09 04:40 | 30.39266 | 81.13903 | 13817 ft | 4 kts | 75° |
| 2026-05-09 04:41 | 30.39267 | 81.13876 | 13817 ft | 4 kts | 124° |
| 2026-05-09 04:41 | 30.39285 | 81.13857 | 13811 ft | 4 kts | 149° |
| 2026-05-09 04:41 | 30.39294 | 81.13850 | 13809 ft | 0 kts | 149° |
| 2026-05-09 04:43 | 30.39284 | 81.13858 | 13812 ft | 3 kts | 149° |
| 2026-05-09 04:44 | 30.39259 | 81.13876 | 13814 ft | 5 kts | 148° |
| 2026-05-09 04:44 | 30.39225 | 81.13900 | 13808 ft | 5 kts | 149° |
| 2026-05-09 04:44 | 30.39196 | 81.13919 | 13809 ft | 4 kts | 149° |
| 2026-05-09 04:44 | 30.39175 | 81.13931 | 13810 ft | 4 kts | 163° |
| 2026-05-09 04:45 | 30.39147 | 81.13916 | 13811 ft | 6 kts | 227° |
| 2026-05-09 04:45 | 30.39120 | 81.13865 | 13813 ft | 8 kts | 239° |
| 2026-05-09 04:45 | 30.39108 | 81.13802 | 13810 ft | 10 kts | 292° |
| 2026-05-09 04:45 | 30.39177 | 81.13746 | 13808 ft | 13 kts | 328° |
| 2026-05-09 04:46 | 30.39262 | 81.13685 | 13803 ft | 15 kts | 328° |
| 2026-05-09 04:46 | 30.39361 | 81.13617 | 13799 ft | 18 kts | 329° |
| 2026-05-09 04:46 | 30.39475 | 81.13538 | 13796 ft | 20 kts | 328° |
| 2026-05-09 04:46 | 30.39598 | 81.13450 | 13793 ft | 21 kts | 329° |
| 2026-05-09 04:47 | 30.39730 | 81.13359 | 13789 ft | 23 kts | 329° |
| 2026-05-09 04:47 | 30.39872 | 81.13259 | 13784 ft | 25 kts | 329° |
| 2026-05-09 04:47 | 30.40029 | 81.13150 | 13779 ft | 27 kts | 329° |
| 2026-05-09 04:47 | 30.40192 | 81.13035 | 13773 ft | 29 kts | 328° |
| 2026-05-09 04:48 | 30.40365 | 81.12914 | 13769 ft | 30 kts | 329° |
| 2026-05-09 04:48 | 30.40546 | 81.12788 | 13764 ft | 31 kts | 329° |
| 2026-05-09 04:48 | 30.40731 | 81.12659 | 13759 ft | 32 kts | 329° |
| 2026-05-09 04:48 | 30.40925 | 81.12523 | 13754 ft | 33 kts | 329° |
| 2026-05-09 04:49 | 30.41122 | 81.12384 | 13747 ft | 34 kts | 328° |
| 2026-05-09 04:49 | 30.41326 | 81.12241 | 13741 ft | 31 kts | 329° |
| 2026-05-09 04:49 | 30.41440 | 81.12161 | 13739 ft | 11 kts | 329° |
| 2026-05-09 04:49 | 30.41517 | 81.12144 | 13737 ft | 12 kts | 334° |
| 2026-05-09 04:50 | 30.41489 | 81.12120 | 13737 ft | 9 kts | 119° |
| 2026-05-09 04:50 | 30.41459 | 81.12148 | 13738 ft | 0 kts | 148° |
| 2026-05-09 04:50 | 30.41452 | 81.12154 | 13738 ft | 11 kts | 148° |
| 2026-05-09 04:51 | 30.41196 | 81.12333 | 13744 ft | 73 kts | 149° |
| 2026-05-09 04:51 | 30.40603 | 81.12747 | 13764 ft | 124 kts | 149° |
| 2026-05-09 04:51 | 30.39733 | 81.13357 | 13787 ft | 167 kts | 148° |
| 2026-05-09 04:51 | 30.39012 | 81.13860 | 13813 ft | 191 kts | 148° |
| 2026-05-09 04:52 | 30.37465 | 81.14945 | 14498 ft | 199 kts | 147° |
| 2026-05-09 04:52 | 30.36283 | 81.15771 | 15173 ft | 199 kts | 147° |
| 2026-05-09 04:52 | 30.35479 | 81.16333 | 15459 ft | 203 kts | 147° |
| 2026-05-09 04:52 | 30.34227 | 81.17209 | 15628 ft | 216 kts | 146° |
| 2026-05-09 04:53 | 30.32909 | 81.18132 | 15793 ft | 226 kts | 146° |
| 2026-05-09 04:53 | 30.31510 | 81.18995 | 15940 ft | 232 kts | 161° |
| 2026-05-09 04:53 | 30.29900 | 81.19202 | 16194 ft | 238 kts | 188° |
| 2026-05-09 04:53 | 30.28352 | 81.18567 | 16440 ft | 239 kts | 215° |
| 2026-05-09 04:54 | 30.27200 | 81.17210 | 16673 ft | 238 kts | 243° |
| 2026-05-09 04:54 | 30.26669 | 81.15432 | 16926 ft | 233 kts | 268° |
| 2026-05-09 04:54 | 30.26840 | 81.13604 | 17162 ft | 229 kts | 293° |
| 2026-05-09 04:54 | 30.27646 | 81.12052 | 17397 ft | 224 kts | 317° |
| 2026-05-09 04:55 | 30.28904 | 81.11030 | 17628 ft | 221 kts | 341° |
| 2026-05-09 04:55 | 30.30390 | 81.10676 | 17856 ft | 219 kts | 4° |
| 2026-05-09 04:55 | 30.31860 | 81.11043 | 18085 ft | 217 kts | 26° |
| 2026-05-09 04:55 | 30.33233 | 81.11831 | 18339 ft | 228 kts | 24° |
| 2026-05-09 04:56 | 30.34765 | 81.12500 | 18589 ft | 244 kts | 17° |
| 2026-05-09 04:56 | 30.36468 | 81.12973 | 18821 ft | 259 kts | 10° |
| 2026-05-09 04:56 | 30.38315 | 81.13186 | 19066 ft | 275 kts | 3° |
| 2026-05-09 04:56 | 30.40272 | 81.13094 | 19337 ft | 286 kts | 355° |
| 2026-05-09 04:57 | 30.42243 | 81.12668 | 19634 ft | 290 kts | 347° |
| 2026-05-09 04:57 | 30.44161 | 81.11909 | 19940 ft | 293 kts | 339° |
| 2026-05-09 04:57 | 30.45975 | 81.10809 | 20280 ft | 296 kts | 330° |
| 2026-05-09 04:57 | 30.47634 | 81.09386 | 20681 ft | 298 kts | 321° |
| 2026-05-09 04:58 | 30.49190 | 81.07768 | 21162 ft | 303 kts | 324° |
| 2026-05-09 04:58 | 30.50990 | 81.06419 | 21459 ft | 316 kts | 335° |
| 2026-05-09 04:58 | 30.53092 | 81.05494 | 21623 ft | 331 kts | 347° |
| 2026-05-09 04:58 | 30.55393 | 81.05115 | 22034 ft | 338 kts | 360° |
| 2026-05-09 04:59 | 30.57740 | 81.05326 | 22624 ft | 340 kts | 11° |
| 2026-05-09 04:59 | 30.60023 | 81.06107 | 23226 ft | 345 kts | 23° |
| 2026-05-09 04:59 | 30.62123 | 81.07466 | 23865 ft | 348 kts | 35° |
| 2026-05-09 04:59 | 30.63926 | 81.09356 | 24380 ft | 353 kts | 48° |
| 2026-05-09 05:00 | 30.65335 | 81.11709 | 24858 ft | 359 kts | 60° |
| 2026-05-09 05:00 | 30.66268 | 81.14424 | 25340 ft | 366 kts | 73° |
| 2026-05-09 05:00 | 30.66636 | 81.17369 | 25790 ft | 373 kts | 88° |
| 2026-05-09 05:00 | 30.66440 | 81.20397 | 26244 ft | 379 kts | 94° |
| 2026-05-09 05:01 | 30.66409 | 81.23459 | 26388 ft | 390 kts | 82° |
| 2026-05-09 05:01 | 30.66982 | 81.26568 | 26517 ft | 400 kts | 69° |
| 2026-05-09 05:01 | 30.68186 | 81.29508 | 26656 ft | 408 kts | 55° |
| 2026-05-09 05:01 | 30.69993 | 81.32087 | 26784 ft | 416 kts | 41° |
| 2026-05-09 05:02 | 30.72298 | 81.34133 | 27016 ft | 420 kts | 30° |
| 2026-05-09 05:02 | 30.74788 | 81.35948 | 27349 ft | 425 kts | 30° |
| 2026-05-09 05:02 | 30.77306 | 81.37779 | 27756 ft | 428 kts | 30° |
| 2026-05-09 05:02 | 30.79669 | 81.39896 | 28161 ft | 434 kts | 45° |
| 2026-05-09 05:03 | 30.81511 | 81.42707 | 28520 ft | 440 kts | 55° |
| 2026-05-09 05:03 | 30.83053 | 81.45805 | 28887 ft | 445 kts | 60° |
| 2026-05-09 05:03 | 30.84412 | 81.49106 | 29262 ft | 448 kts | 64° |
| 2026-05-09 05:03 | 30.85662 | 81.52395 | 29620 ft | 452 kts | 64° |
| 2026-05-09 05:04 | 30.86940 | 81.55743 | 29964 ft | 454 kts | 63° |
| 2026-05-09 05:04 | 30.88278 | 81.59083 | 30315 ft | 457 kts | 62° |
| 2026-05-09 05:04 | 30.89686 | 81.62410 | 30607 ft | 460 kts | 61° |
| 2026-05-09 05:04 | 30.91151 | 81.65732 | 30895 ft | 462 kts | 60° |
| 2026-05-09 05:05 | 30.92651 | 81.69066 | 31119 ft | 467 kts | 60° |
| 2026-05-09 05:05 | 30.94169 | 81.72429 | 31315 ft | 471 kts | 60° |
| 2026-05-09 05:05 | 30.95686 | 81.75817 | 31690 ft | 471 kts | 61° |
| 2026-05-09 05:05 | 30.97186 | 81.79208 | 32078 ft | 471 kts | 61° |
| 2026-05-09 05:06 | 30.98675 | 81.82609 | 32491 ft | 471 kts | 62° |
| 2026-05-09 05:06 | 31.00157 | 81.86007 | 32882 ft | 470 kts | 61° |
| 2026-05-09 05:06 | 31.01636 | 81.89409 | 33245 ft | 471 kts | 62° |
| 2026-05-09 05:06 | 31.03114 | 81.92809 | 33651 ft | 470 kts | 61° |
| 2026-05-09 05:07 | 31.04593 | 81.96209 | 34049 ft | 470 kts | 61° |
| 2026-05-09 05:07 | 31.06074 | 81.99611 | 34451 ft | 469 kts | 61° |
| 2026-05-09 05:07 | 31.07552 | 82.03002 | 34795 ft | 469 kts | 61° |
| 2026-05-09 05:07 | 31.09032 | 82.06393 | 35142 ft | 469 kts | 61° |
| 2026-05-09 05:08 | 31.10510 | 82.09782 | 35364 ft | 469 kts | 61° |
| 2026-05-09 05:08 | 31.13447 | 82.16547 | 35422 ft | 465 kts | 61° |
| 2026-05-09 05:09 | 31.16366 | 82.23288 | 35425 ft | 465 kts | 61° |
| 2026-05-09 05:09 | 31.19281 | 82.30025 | 35424 ft | 465 kts | 61° |
| 2026-05-09 05:10 | 31.22195 | 82.36765 | 35421 ft | 465 kts | 61° |
| 2026-05-09 05:10 | 31.25099 | 82.43512 | 35417 ft | 465 kts | 62° |
| 2026-05-09 05:11 | 31.28000 | 82.50263 | 35419 ft | 465 kts | 62° |
| 2026-05-09 05:11 | 31.30910 | 82.57020 | 35392 ft | 465 kts | 62° |
| 2026-05-09 05:12 | 31.33809 | 82.63772 | 35401 ft | 464 kts | 62° |
| 2026-05-09 05:12 | 31.36696 | 82.70529 | 35401 ft | 464 kts | 62° |
| 2026-05-09 05:13 | 31.39577 | 82.77290 | 35376 ft | 464 kts | 62° |
| 2026-05-09 05:13 | 31.42460 | 82.84045 | 35374 ft | 464 kts | 62° |
| 2026-05-09 05:14 | 31.45315 | 82.90821 | 35352 ft | 464 kts | 66° |
| 2026-05-09 05:14 | 31.46826 | 82.98154 | 35353 ft | 466 kts | 86° |
| 2026-05-09 05:14 | 31.46736 | 83.01945 | 35351 ft | 467 kts | 97° |
| 2026-05-09 05:15 | 31.46095 | 83.05668 | 35344 ft | 466 kts | 107° |
| 2026-05-09 05:15 | 31.43922 | 83.12827 | 35343 ft | 467 kts | 110° |
| 2026-05-09 05:16 | 31.41708 | 83.19972 | 35358 ft | 467 kts | 110° |
| 2026-05-09 05:16 | 31.39482 | 83.27128 | 35353 ft | 468 kts | 110° |
| 2026-05-09 05:17 | 31.37254 | 83.34285 | 35363 ft | 468 kts | 110° |
| 2026-05-09 05:17 | 31.35030 | 83.41447 | 35355 ft | 469 kts | 110° |
| 2026-05-09 05:18 | 31.32797 | 83.48610 | 35357 ft | 469 kts | 110° |
| 2026-05-09 05:18 | 31.30561 | 83.55769 | 35364 ft | 469 kts | 111° |
| 2026-05-09 05:19 | 31.28329 | 83.62887 | 35347 ft | 470 kts | 111° |
| 2026-05-09 05:19 | 31.26055 | 83.70107 | 35344 ft | 470 kts | 111° |
| 2026-05-09 05:20 | 31.23795 | 83.77289 | 35329 ft | 471 kts | 111° |
| 2026-05-09 05:20 | 31.21528 | 83.84467 | 35333 ft | 471 kts | 111° |
| 2026-05-09 05:21 | 31.19262 | 83.91594 | 35304 ft | 471 kts | 111° |
| 2026-05-09 05:21 | 31.16987 | 83.98767 | 35316 ft | 471 kts | 112° |
| 2026-05-09 05:22 | 31.14710 | 84.05931 | 35338 ft | 470 kts | 112° |
| 2026-05-09 05:22 | 31.12435 | 84.13089 | 35316 ft | 470 kts | 112° |
| 2026-05-09 05:23 | 31.10159 | 84.20234 | 35317 ft | 470 kts | 112° |
| 2026-05-09 05:23 | 31.07875 | 84.27374 | 35302 ft | 470 kts | 112° |
| 2026-05-09 05:24 | 31.05579 | 84.34508 | 35320 ft | 469 kts | 112° |
| 2026-05-09 05:24 | 31.03283 | 84.41627 | 35307 ft | 469 kts | 112° |
| 2026-05-09 05:25 | 31.00996 | 84.48744 | 35308 ft | 469 kts | 112° |
| 2026-05-09 05:25 | 30.97553 | 84.59409 | 35292 ft | 469 kts | 112° |
| 2026-05-09 05:26 | 30.95259 | 84.66515 | 35288 ft | 469 kts | 112° |
| 2026-05-09 05:26 | 30.92951 | 84.73612 | 35284 ft | 468 kts | 113° |
| 2026-05-09 05:27 | 30.90646 | 84.80701 | 35283 ft | 468 kts | 113° |
| 2026-05-09 05:27 | 30.88329 | 84.87791 | 35274 ft | 468 kts | 113° |
| 2026-05-09 05:28 | 30.86015 | 84.94870 | 35257 ft | 468 kts | 112° |
| 2026-05-09 05:28 | 30.83702 | 85.01935 | 35263 ft | 467 kts | 112° |
| 2026-05-09 05:29 | 30.81386 | 85.08990 | 35262 ft | 466 kts | 112° |
| 2026-05-09 05:29 | 30.79072 | 85.16028 | 35265 ft | 466 kts | 112° |
| 2026-05-09 05:30 | 30.76751 | 85.23064 | 35264 ft | 466 kts | 112° |
| 2026-05-09 05:30 | 30.74436 | 85.30091 | 35264 ft | 465 kts | 113° |
| 2026-05-09 05:31 | 30.72112 | 85.37108 | 35259 ft | 465 kts | 113° |
| 2026-05-09 05:31 | 30.69778 | 85.44122 | 35253 ft | 465 kts | 113° |
| 2026-05-09 05:32 | 30.67447 | 85.51137 | 35257 ft | 465 kts | 113° |
| 2026-05-09 05:32 | 30.65115 | 85.58151 | 35256 ft | 466 kts | 113° |
| 2026-05-09 05:33 | 30.63175 | 85.63985 | 35262 ft | 466 kts | 113° |
| 2026-05-09 05:33 | 30.60444 | 85.72177 | 35250 ft | 465 kts | 113° |
| 2026-05-09 05:34 | 30.58489 | 85.77992 | 35262 ft | 465 kts | 113° |
| 2026-05-09 05:34 | 30.56143 | 85.84980 | 35265 ft | 465 kts | 113° |
| 2026-05-09 05:35 | 30.53791 | 85.91957 | 35284 ft | 464 kts | 113° |
| 2026-05-09 05:35 | 30.51447 | 85.98924 | 35285 ft | 464 kts | 113° |
| 2026-05-09 05:36 | 30.49096 | 86.05886 | 35279 ft | 463 kts | 113° |
| 2026-05-09 05:36 | 30.46744 | 86.12841 | 35281 ft | 463 kts | 113° |
| 2026-05-09 05:37 | 30.44384 | 86.19790 | 35305 ft | 463 kts | 113° |
| 2026-05-09 05:37 | 30.42019 | 86.26726 | 35311 ft | 462 kts | 113° |
| 2026-05-09 05:38 | 30.39655 | 86.33651 | 35311 ft | 462 kts | 114° |
| 2026-05-09 05:38 | 30.37290 | 86.40572 | 35323 ft | 462 kts | 113° |
| 2026-05-09 05:39 | 30.34934 | 86.47489 | 35313 ft | 461 kts | 113° |
| 2026-05-09 05:39 | 30.32583 | 86.54385 | 35340 ft | 460 kts | 113° |
| 2026-05-09 05:40 | 30.30223 | 86.61264 | 35332 ft | 460 kts | 114° |
| 2026-05-09 05:40 | 30.27846 | 86.68144 | 35324 ft | 461 kts | 114° |
| 2026-05-09 05:41 | 30.25470 | 86.75039 | 35319 ft | 462 kts | 114° |
| 2026-05-09 05:41 | 30.23089 | 86.81947 | 35338 ft | 463 kts | 114° |
| 2026-05-09 05:42 | 30.20715 | 86.88811 | 35338 ft | 463 kts | 114° |
| 2026-05-09 05:42 | 30.18310 | 86.95727 | 35354 ft | 464 kts | 114° |
| 2026-05-09 05:43 | 30.15903 | 87.02650 | 35351 ft | 465 kts | 114° |
| 2026-05-09 05:43 | 30.13488 | 87.09577 | 35347 ft | 465 kts | 114° |
| 2026-05-09 05:44 | 30.11074 | 87.16513 | 35350 ft | 466 kts | 114° |
| 2026-05-09 05:44 | 30.08666 | 87.23462 | 35348 ft | 466 kts | 114° |
| 2026-05-09 05:45 | 30.06246 | 87.30391 | 35345 ft | 465 kts | 114° |
| 2026-05-09 05:45 | 30.03822 | 87.37301 | 35369 ft | 464 kts | 115° |
| 2026-05-09 05:46 | 30.01404 | 87.44193 | 35361 ft | 462 kts | 115° |
| 2026-05-09 05:46 | 29.98992 | 87.51059 | 35362 ft | 461 kts | 115° |
| 2026-05-09 05:47 | 29.96587 | 87.57905 | 35348 ft | 460 kts | 114° |
| 2026-05-09 05:47 | 29.94184 | 87.64738 | 35343 ft | 460 kts | 115° |
| 2026-05-09 05:48 | 29.91776 | 87.71568 | 35338 ft | 460 kts | 115° |
| 2026-05-09 05:48 | 29.89353 | 87.78394 | 35317 ft | 461 kts | 115° |
| 2026-05-09 05:49 | 29.86918 | 87.85243 | 35313 ft | 463 kts | 115° |
| 2026-05-09 05:49 | 29.84474 | 87.92107 | 35320 ft | 464 kts | 115° |
| 2026-05-09 05:50 | 29.82026 | 87.98981 | 35320 ft | 464 kts | 115° |
| 2026-05-09 05:50 | 29.79569 | 88.05866 | 35313 ft | 464 kts | 114° |
| 2026-05-09 05:51 | 29.77107 | 88.12744 | 35316 ft | 465 kts | 114° |
| 2026-05-09 05:51 | 29.74644 | 88.19619 | 35330 ft | 464 kts | 114° |
| 2026-05-09 05:52 | 29.72183 | 88.26481 | 35332 ft | 464 kts | 114° |
| 2026-05-09 05:52 | 29.69720 | 88.33333 | 35319 ft | 464 kts | 115° |
| 2026-05-09 05:53 | 29.67250 | 88.40181 | 35319 ft | 464 kts | 115° |
| 2026-05-09 05:53 | 29.64777 | 88.47033 | 35321 ft | 464 kts | 115° |
| 2026-05-09 05:54 | 29.62301 | 88.53884 | 35320 ft | 464 kts | 115° |
| 2026-05-09 05:54 | 29.59818 | 88.60732 | 35322 ft | 464 kts | 115° |
| 2026-05-09 05:55 | 29.57352 | 88.67537 | 35284 ft | 465 kts | 115° |
| 2026-05-09 05:55 | 29.54845 | 88.74433 | 35280 ft | 464 kts | 115° |
| 2026-05-09 05:56 | 29.52344 | 88.81271 | 35244 ft | 465 kts | 115° |
| 2026-05-09 05:56 | 29.49830 | 88.88135 | 35227 ft | 468 kts | 116° |
| 2026-05-09 05:57 | 29.47329 | 88.94993 | 35171 ft | 471 kts | 116° |
| 2026-05-09 05:57 | 29.44789 | 89.01935 | 35177 ft | 473 kts | 116° |
| 2026-05-09 05:58 | 29.42232 | 89.08900 | 35160 ft | 474 kts | 116° |
| 2026-05-09 05:58 | 29.39663 | 89.15881 | 35170 ft | 475 kts | 116° |
| 2026-05-09 05:59 | 29.37067 | 89.22907 | 35172 ft | 476 kts | 115° |
| 2026-05-09 05:59 | 29.35439 | 89.30297 | 35046 ft | 484 kts | 97° |
| 2026-05-09 06:00 | 29.35292 | 89.34149 | 34812 ft | 483 kts | 93° |
| 2026-05-09 06:00 | 29.35201 | 89.37982 | 34583 ft | 479 kts | 93° |
| 2026-05-09 06:00 | 29.35104 | 89.41786 | 34361 ft | 476 kts | 93° |
| 2026-05-09 06:00 | 29.34999 | 89.45563 | 34136 ft | 472 kts | 93° |
| 2026-05-09 06:01 | 29.34889 | 89.49314 | 33886 ft | 469 kts | 93° |
| 2026-05-09 06:01 | 29.34778 | 89.53036 | 33621 ft | 465 kts | 93° |
| 2026-05-09 06:01 | 29.34666 | 89.56728 | 33373 ft | 462 kts | 93° |
| 2026-05-09 06:01 | 29.34554 | 89.60396 | 33114 ft | 459 kts | 93° |
| 2026-05-09 06:02 | 29.34443 | 89.64036 | 32857 ft | 455 kts | 93° |
| 2026-05-09 06:02 | 29.34333 | 89.67647 | 32603 ft | 452 kts | 93° |
| 2026-05-09 06:02 | 29.34224 | 89.71235 | 32353 ft | 449 kts | 93° |
| 2026-05-09 06:02 | 29.34114 | 89.74800 | 32104 ft | 446 kts | 93° |
| 2026-05-09 06:03 | 29.34005 | 89.78289 | 31860 ft | 443 kts | 92° |
| 2026-05-09 06:03 | 29.33894 | 89.81801 | 31614 ft | 439 kts | 92° |
| 2026-05-09 06:03 | 29.33783 | 89.85286 | 31331 ft | 435 kts | 92° |
| 2026-05-09 06:03 | 29.33675 | 89.88741 | 30812 ft | 433 kts | 92° |
| 2026-05-09 06:04 | 29.33564 | 89.92234 | 30281 ft | 432 kts | 92° |
| 2026-05-09 06:04 | 29.33456 | 89.95620 | 29717 ft | 430 kts | 92° |
| 2026-05-09 06:04 | 29.33345 | 89.99029 | 29221 ft | 426 kts | 92° |
| 2026-05-09 06:04 | 29.33234 | 90.02405 | 28713 ft | 423 kts | 92° |
| 2026-05-09 06:05 | 29.33123 | 90.05758 | 28231 ft | 419 kts | 92° |
| 2026-05-09 06:05 | 29.33012 | 90.09078 | 27754 ft | 416 kts | 92° |
| 2026-05-09 06:05 | 29.32899 | 90.12379 | 27288 ft | 413 kts | 92° |
| 2026-05-09 06:05 | 29.32785 | 90.15654 | 26829 ft | 410 kts | 92° |
| 2026-05-09 06:06 | 29.32567 | 90.18903 | 26382 ft | 407 kts | 99° |
| 2026-05-09 06:06 | 29.31923 | 90.22042 | 25881 ft | 402 kts | 108° |
| 2026-05-09 06:06 | 29.31093 | 90.25050 | 25469 ft | 391 kts | 108° |
| 2026-05-09 06:06 | 29.30285 | 90.27986 | 25054 ft | 385 kts | 108° |
| 2026-05-09 06:07 | 29.29485 | 90.30909 | 24615 ft | 383 kts | 108° |
| 2026-05-09 06:07 | 29.28693 | 90.33816 | 24182 ft | 382 kts | 108° |
| 2026-05-09 06:07 | 29.27903 | 90.36720 | 23740 ft | 382 kts | 108° |
| 2026-05-09 06:07 | 29.27112 | 90.39620 | 23255 ft | 381 kts | 108° |
| 2026-05-09 06:08 | 29.26325 | 90.42500 | 22807 ft | 378 kts | 108° |
| 2026-05-09 06:08 | 29.25539 | 90.45365 | 22399 ft | 376 kts | 108° |
| 2026-05-09 06:08 | 29.24757 | 90.48215 | 22140 ft | 375 kts | 108° |
| 2026-05-09 06:08 | 29.23975 | 90.51054 | 21876 ft | 373 kts | 108° |
| 2026-05-09 06:09 | 29.23205 | 90.53851 | 21706 ft | 363 kts | 108° |
| 2026-05-09 06:09 | 29.22455 | 90.56576 | 21505 ft | 355 kts | 108° |
| 2026-05-09 06:09 | 29.21716 | 90.59250 | 21286 ft | 350 kts | 108° |
| 2026-05-09 06:09 | 29.20982 | 90.61897 | 21077 ft | 348 kts | 108° |
| 2026-05-09 06:10 | 29.20253 | 90.64527 | 20851 ft | 346 kts | 108° |
| 2026-05-09 06:10 | 29.19529 | 90.67148 | 20620 ft | 345 kts | 108° |
| 2026-05-09 06:10 | 29.18808 | 90.69761 | 20406 ft | 343 kts | 108° |
| 2026-05-09 06:10 | 29.18088 | 90.72358 | 20184 ft | 342 kts | 108° |
| 2026-05-09 06:11 | 29.17369 | 90.74940 | 19995 ft | 337 kts | 109° |
| 2026-05-09 06:11 | 29.16667 | 90.77465 | 19856 ft | 329 kts | 108° |
| 2026-05-09 06:11 | 29.16226 | 90.80005 | 19650 ft | 324 kts | 95° |
| 2026-05-09 06:11 | 29.16280 | 90.82568 | 19462 ft | 322 kts | 83° |
| 2026-05-09 06:12 | 29.16784 | 90.85051 | 19259 ft | 320 kts | 71° |
| 2026-05-09 06:12 | 29.17705 | 90.87360 | 19081 ft | 319 kts | 59° |
| 2026-05-09 06:12 | 29.19009 | 90.89410 | 18865 ft | 319 kts | 48° |
| 2026-05-09 06:12 | 29.20676 | 90.91124 | 18432 ft | 326 kts | 34° |
| 2026-05-09 06:13 | 29.22639 | 90.92378 | 18222 ft | 322 kts | 22° |
| 2026-05-09 06:13 | 29.24737 | 90.93169 | 18061 ft | 312 kts | 14° |
| 2026-05-09 06:13 | 29.26826 | 90.93812 | 17612 ft | 310 kts | 14° |
| 2026-05-09 06:13 | 29.28959 | 90.94106 | 17213 ft | 309 kts | 356° |
| 2026-05-09 06:14 | 29.31056 | 90.93675 | 16817 ft | 304 kts | 339° |
| 2026-05-09 06:14 | 29.32865 | 90.92589 | 16678 ft | 283 kts | 322° |
| 2026-05-09 06:14 | 29.34246 | 90.91115 | 16588 ft | 264 kts | 308° |
| 2026-05-09 06:14 | 29.35381 | 90.89525 | 16474 ft | 249 kts | 308° |
| 2026-05-09 06:15 | 29.36446 | 90.88053 | 16416 ft | 231 kts | 308° |
| 2026-05-09 06:15 | 29.37231 | 90.86529 | 16226 ft | 217 kts | 287° |
| 2026-05-09 06:15 | 29.37416 | 90.84855 | 16046 ft | 210 kts | 266° |
| 2026-05-09 06:15 | 29.37316 | 90.83193 | 15790 ft | 208 kts | 264° |
| 2026-05-09 06:16 | 29.37146 | 90.81548 | 15531 ft | 206 kts | 261° |
| 2026-05-09 06:16 | 29.36994 | 90.80489 | 15365 ft | 201 kts | 259° |
| 2026-05-09 06:16 | 29.36596 | 90.78447 | 15046 ft | 192 kts | 255° |
| 2026-05-09 06:16 | 29.36338 | 90.77490 | 14886 ft | 189 kts | 246° |
| 2026-05-09 06:17 | 29.35600 | 90.76274 | 14711 ft | 186 kts | 223° |
| 2026-05-09 06:17 | 29.34134 | 90.75332 | 14355 ft | 180 kts | 192° |
| 2026-05-09 06:17 | 29.33321 | 90.75206 | 14202 ft | 177 kts | 179° |
| 2026-05-09 06:17 | 29.32126 | 90.75447 | 13988 ft | 174 kts | 159° |
| 2026-05-09 06:18 | 29.31086 | 90.76157 | 13770 ft | 177 kts | 139° |
| 2026-05-09 06:18 | 29.30331 | 90.77258 | 13569 ft | 176 kts | 113° |
| 2026-05-09 06:18 | 29.29982 | 90.78586 | 13374 ft | 174 kts | 93° |
| 2026-05-09 06:18 | 29.29984 | 90.79962 | 13158 ft | 173 kts | 86° |
| 2026-05-09 06:19 | 29.30007 | 90.81342 | 12895 ft | 173 kts | 86° |
| 2026-05-09 06:19 | 29.30028 | 90.82718 | 12613 ft | 172 kts | 86° |
| 2026-05-09 06:19 | 29.30050 | 90.84086 | 12387 ft | 171 kts | 85° |
| 2026-05-09 06:19 | 29.30071 | 90.85444 | 12136 ft | 170 kts | 86° |
| 2026-05-09 06:20 | 29.30090 | 90.86796 | 11946 ft | 169 kts | 86° |
| 2026-05-09 06:20 | 29.30109 | 90.88136 | 11734 ft | 168 kts | 86° |
| 2026-05-09 06:20 | 29.30120 | 90.89464 | 11587 ft | 160 kts | 85° |
| 2026-05-09 06:20 | 29.30145 | 90.90602 | 11581 ft | 121 kts | 89° |
| 2026-05-09 06:21 | 29.30154 | 90.91319 | 11580 ft | 48 kts | 89° |
| 2026-05-09 06:21 | 29.30152 | 90.91507 | 11580 ft | 18 kts | 98° |
| 2026-05-09 06:21 | 29.30099 | 90.91639 | 11580 ft | 18 kts | 121° |
| 2026-05-09 06:21 | 29.30060 | 90.91713 | 11573 ft | 8 kts | 123° |
| 2026-05-09 06:22 | 29.30014 | 90.91717 | 11574 ft | 7 kts | 214° |
| 2026-05-09 06:22 | 29.30002 | 90.91662 | 11580 ft | 9 kts | 269° |
| 2026-05-09 06:22 | 29.30000 | 90.91565 | 11579 ft | 15 kts | 268° |
| 2026-05-09 06:22 | 29.29998 | 90.91433 | 11580 ft | 17 kts | 270° |
| 2026-05-09 06:23 | 29.29996 | 90.91300 | 11580 ft | 17 kts | 269° |
| 2026-05-09 06:23 | 29.29994 | 90.91163 | 11580 ft | 18 kts | 269° |
| 2026-05-09 06:23 | 29.29992 | 90.91019 | 11580 ft | 18 kts | 269° |
| 2026-05-09 06:23 | 29.29990 | 90.90874 | 11581 ft | 18 kts | 269° |
| 2026-05-09 06:24 | 29.29988 | 90.90727 | 11580 ft | 19 kts | 269° |
| 2026-05-09 06:24 | 29.29986 | 90.90574 | 11580 ft | 20 kts | 269° |
| 2026-05-09 06:24 | 29.29984 | 90.90417 | 11580 ft | 20 kts | 269° |
| 2026-05-09 06:24 | 29.29981 | 90.90259 | 11580 ft | 20 kts | 269° |
| 2026-05-09 06:25 | 29.29978 | 90.90096 | 11577 ft | 21 kts | 269° |
| 2026-05-09 06:25 | 29.29975 | 90.89930 | 11577 ft | 21 kts | 269° |
| 2026-05-09 06:25 | 29.29973 | 90.89763 | 11578 ft | 21 kts | 269° |
| 2026-05-09 06:25 | 29.29972 | 90.89593 | 11577 ft | 22 kts | 269° |
| 2026-05-09 06:26 | 29.29970 | 90.89419 | 11579 ft | 22 kts | 269° |
| 2026-05-09 06:26 | 29.29967 | 90.89245 | 11579 ft | 22 kts | 269° |
| 2026-05-09 06:26 | 29.29963 | 90.89068 | 11578 ft | 23 kts | 269° |
| 2026-05-09 06:26 | 29.29960 | 90.88912 | 11578 ft | 12 kts | 269° |
| 2026-05-09 06:27 | 29.29943 | 90.88816 | 11581 ft | 13 kts | 231° |
| 2026-05-09 06:27 | 29.29873 | 90.88745 | 11580 ft | 14 kts | 224° |
| 2026-05-09 06:27 | 29.29786 | 90.88701 | 11580 ft | 14 kts | 181° |
| 2026-05-09 06:27 | 29.29684 | 90.88706 | 11580 ft | 15 kts | 177° |
| 2026-05-09 06:28 | 29.29585 | 90.88712 | 11579 ft | 12 kts | 177° |
| 2026-05-09 06:28 | 29.29517 | 90.88762 | 11578 ft | 12 kts | 122° |
| 2026-05-09 06:28 | 29.29502 | 90.88861 | 11578 ft | 13 kts | 87° |
| 2026-05-09 06:28 | 29.29505 | 90.88967 | 11578 ft | 14 kts | 88° |
| 2026-05-09 06:29 | 29.29509 | 90.89079 | 11577 ft | 14 kts | 88° |
| 2026-05-09 06:29 | 29.29513 | 90.89196 | 11577 ft | 15 kts | 88° |
| 2026-05-09 06:29 | 29.29515 | 90.89300 | 11578 ft | 10 kts | 89° |
| 2026-05-09 06:29 | 29.29516 | 90.89367 | 11578 ft | 8 kts | 89° |
| 2026-05-09 06:30 | 29.29506 | 90.89411 | 11576 ft | 4 kts | 154° |
| 2026-05-09 06:30 | 29.29478 | 90.89411 | 11575 ft | 5 kts | 184° |
| 2026-05-09 06:30 | 29.29441 | 90.89408 | 11574 ft | 5 kts | 184° |
| 2026-05-09 06:30 | 29.29403 | 90.89405 | 11574 ft | 5 kts | 184° |
| 2026-05-09 06:31 | 29.29384 | 90.89403 | 11574 ft | 0 kts | 184° |